Latest Weather Observations for Hopetoun North

IDW60801

Issued at 11:54 pm WST Friday 28 February 2020 (issued every 10 minutes, with the page automatically refreshed every 10 minutes)

About weather observations | Map of weather stations | Latest weather observations for WA | Other Formats
Station Details ID: 009961 Name: HOPETOUN NORTH Lat: -33.93 Lon: 120.13 Height: 26.0 m
Data from the previous 72 hours. | See also: Recent months at Hopetoun North
Date/Time
WST
Temp
°C
App
Temp
°C
Dew
Point
°C
Rel
Hum
%
Delta-T
°C
Wind Press
QNH
hPa
Press
MSL
hPa
Rain since
9am
mm
Dir  Spd
km/h
Gust
km/h
Spd
kts
Gust
kts
28/11:30pm 21.6 18.3 18.0 80 2.2 NNE 32 44 17 24 1008.1 1008.0 6.2
28/11:00pm 21.4 18.3 18.4 83 1.9 NNE 32 48 17 26 1008.6 1008.5 6.2
28/10:50pm 21.1 18.9 18.7 86 1.5 NNE 28 48 15 26 1008.3 1008.2 6.2
28/10:30pm 20.8 18.0 19.1 90 1.1 NNE 32 46 17 25 1008.5 1008.4 6.2
28/10:00pm 20.9 19.4 19.4 91 1.0 NNE 26 37 14 20 1009.4 1009.3 6.0
28/09:30pm 21.1 20.4 19.4 90 1.1 N 22 32 12 17 1011.1 1011.0 5.4
28/09:17pm 21.3 19.5 19.6 90 1.1 N 28 39 15 21 1010.5 1010.4 5.2
28/09:00pm 21.1 19.0 19.7 92 0.9 NNE 30 41 16 22 1008.5 1008.4 5.2
28/08:30pm 20.9 19.6 19.9 94 0.6 NE 26 35 14 19 1009.0 1008.9 5.2
28/08:00pm 20.9 20.8 19.9 94 0.6 NNE 20 28 11 15 1010.3 1010.2 5.2
28/07:30pm 21.0 20.5 20.0 94 0.6 NNE 22 32 12 17 1010.6 1010.5 5.0
28/07:00pm 21.2 20.4 20.0 93 0.8 NNE 24 33 13 18 1010.1 1010.0 4.6
28/06:30pm 21.3 21.1 20.5 95 0.5 NNE 22 30 12 16 1009.8 1009.7 4.4
28/06:00pm 21.3 22.4 21.3 100 0.0 NNE 17 24 9 13 1010.3 1010.2 4.4
28/05:30pm 21.3 22.8 21.3 100 0.0 NE 15 22 8 12 1009.5 1009.4 4.4
28/05:00pm 21.2 22.9 20.9 98 0.2 E 13 17 7 9 1010.5 1010.4 4.4
28/04:30pm 21.6 24.8 21.6 100 0.0 E 7 11 4 6 1010.7 1010.6 4.2
28/04:00pm 21.5 25.4 21.2 98 0.2 NNE 2 6 1 3 1012.1 1012.1 4.0
28/03:30pm 21.5 24.6 21.0 97 0.3 W 6 7 3 4 1012.2 1012.2 3.4
28/03:00pm 21.3 24.1 20.8 97 0.3 WSW 7 9 4 5 1012.1 1012.1 2.8
28/02:30pm 21.1 24.3 20.4 96 0.5 N 4 7 2 4 1012.6 1012.6 1.8
28/02:00pm 20.8 23.2 20.1 96 0.4 NE 7 11 4 6 1012.6 1012.6 1.2
28/01:30pm 20.6 22.8 19.3 92 0.8 NE 6 11 3 6 1013.0 1013.0 0.8
28/01:00pm 20.9 22.7 18.7 87 1.4 NE 7 11 4 6 1012.8 1012.8 0.2
28/12:30pm 21.1 21.7 18.5 85 1.6 ESE 13 19 7 10 1012.6 1012.6 0.0
28/12:00pm 22.7 24.2 18.0 75 2.9 SE 7 15 4 8 1012.0 1012.0 0.0
28/11:30am 22.8 24.2 17.9 74 3.1 ENE 7 13 4 7 1011.7 1011.6 0.0
28/11:00am 22.2 23.2 17.8 76 2.7 ENE 9 11 5 6 1012.3 1012.3 0.0
28/10:30am 22.0 24.2 17.4 75 2.8 SE 2 4 1 2 1012.7 1012.7 0.0
28/10:00am 21.6 23.1 18.0 80 2.2 S 7 11 4 6 1013.2 1013.2 0.0
28/09:30am 21.4 22.6 18.2 82 2.0 SE 9 13 5 7 1013.5 1013.5 0.0
28/09:00am 21.9 22.4 17.5 76 2.7 SE 11 17 6 9 1011.8 1011.7 0.6
28/08:30am 23.5 24.8 17.5 69 3.7 ENE 7 15 4 8 1011.1 1011.0 0.6
28/08:00am 21.9 23.8 16.8 73 3.1 SW 2 4 1 2 1011.3 1011.2 0.6
28/07:30am 20.5 21.5 16.3 77 2.5 E 6 20 3 11 1010.9 1010.8 0.6
28/07:04am 18.5 13.9 14.6 78 2.3 NE 32 50 17 27 1010.1 1010.0 0.6
28/07:00am 18.5 13.0 14.6 78 2.3 NE 37 50 20 27 1009.9 1009.8 0.6
28/06:51am 18.3 15.2 14.4 78 2.3 ENE 24 43 13 23 1011.6 1011.5 0.6
28/06:30am 18.2 17.4 14.1 77 2.4 ENE 11 19 6 10 1013.7 1013.7 0.6
28/06:00am 18.1 17.0 14.2 78 2.2 ENE 13 19 7 10 1013.3 1013.3 0.6
28/05:30am 18.0 16.8 13.9 77 2.3 E 13 19 7 10 1013.4 1013.4 0.6
28/05:00am 17.9 16.3 14.0 78 2.2 ENE 15 20 8 11 1013.2 1013.2 0.6
28/04:30am 17.8 15.4 13.7 77 2.3 ENE 19 26 10 14 1012.9 1012.9 0.6
28/04:00am 17.7 15.6 13.6 77 2.3 ENE 17 24 9 13 1013.5 1013.5 0.6
28/03:30am 17.8 16.1 13.7 77 2.3 NE 15 22 8 12 1013.7 1013.7 0.6
28/03:00am 17.8 15.4 13.7 77 2.3 ENE 19 28 10 15 1013.7 1013.7 0.6
28/02:30am 17.7 15.2 13.6 77 2.3 E 19 30 10 16 1013.6 1013.6 0.6
28/02:00am 17.4 15.3 13.7 79 2.1 ENE 17 22 9 12 1014.2 1014.2 0.6
28/01:57am 17.4 15.3 13.7 79 2.1 ENE 17 26 9 14 1014.3 1014.3 0.6
28/01:30am 17.6 17.4 13.7 78 2.2 NE 7 13 4 7 1016.4 1016.3 0.6
28/01:15am 17.7 16.8 13.8 78 2.2 E 11 24 6 13 1016.2 1016.1 0.6
28/01:00am 17.8 14.5 13.9 78 2.2 ENE 24 39 13 21 1014.1 1014.1 0.6
28/12:30am 17.9 15.0 14.0 78 2.2 ENE 22 35 12 19 1014.3 1014.3 0.6
28/12:00am 18.1 15.5 14.8 81 1.9 E 22 35 12 19 1014.5 1014.5 0.6
 
Date/Time
WST
Temp
°C
App
Temp
°C
Dew
Point
°C
Rel
Hum
%
Delta-T
°C
Wind Press
QNH
hPa
Press
MSL
hPa
Rain since
9am
mm
Dir  Spd
km/h
Gust
km/h
Spd
kts
Gust
kts
27/11:47pm 18.0 16.0 14.9 82 1.8 E 19 30 10 16 1014.9 1014.9 0.6
27/11:30pm 18.1 16.8 14.8 81 1.9 ENE 15 26 8 14 1017.0 1016.9 0.6
27/11:00pm 18.4 17.1 14.9 80 2.0 E 15 28 8 15 1017.0 1016.9 0.6
27/10:30pm 18.0 16.8 15.1 83 1.7 E 15 28 8 15 1016.3 1016.2 0.6
27/10:00pm 18.4 16.3 15.3 82 1.8 ENE 20 30 11 16 1016.4 1016.3 0.6
27/09:30pm 18.4 18.9 15.5 83 1.7 E 7 11 4 6 1018.0 1017.9 0.6
27/09:00pm 18.4 17.0 15.6 84 1.6 ENE 17 35 9 19 1017.1 1017.0 0.6
27/08:30pm 18.4 16.5 15.8 85 1.5 ENE 20 30 11 16 1016.5 1016.4 0.6
27/08:00pm 18.2 16.6 16.0 87 1.3 ENE 19 28 10 15 1016.4 1016.3 0.6
27/07:30pm 18.1 16.0 16.3 89 1.1 ENE 22 33 12 18 1016.5 1016.4 0.6
27/07:00pm 18.2 17.5 16.4 89 1.1 NE 15 20 8 11 1017.8 1017.7 0.6
27/06:30pm 18.2 17.2 16.5 90 1.0 ENE 17 28 9 15 1017.3 1017.2 0.6
27/06:00pm 18.8 17.6 16.2 85 1.5 E 17 24 9 13 1017.3 1017.2 0.4
27/05:30pm 19.2 18.4 16.2 83 1.8 E 15 24 8 13 1018.0 1017.9 0.4
27/05:00pm 19.2 18.5 16.4 84 1.7 E 15 24 8 13 1018.0 1017.9 0.4
27/04:30pm 19.4 19.1 16.4 83 1.8 E 13 19 7 10 1018.3 1018.2 0.4
27/04:00pm 19.2 19.4 16.8 86 1.4 E 11 20 6 11 1017.6 1017.5 0.4
27/03:30pm 19.1 17.0 17.2 89 1.2 E 24 35 13 19 1017.0 1016.9 0.4
27/03:00pm 19.4 18.1 17.2 87 1.3 ESE 20 32 11 17 1018.2 1018.1 0.2
27/02:30pm 20.1 18.3 16.9 82 1.9 ESE 22 32 12 17 1018.1 1018.0 0.0
27/02:00pm 20.0 18.1 16.6 81 2.0 ESE 22 32 12 17 1018.4 1018.3 0.0
27/01:30pm 20.2 18.6 16.4 79 2.3 ESE 20 28 11 15 1019.0 1018.9 0.0
27/01:00pm 20.1 18.5 16.5 80 2.2 ESE 20 32 11 17 1019.0 1018.9 0.0
27/12:30pm 20.4 18.9 16.8 80 2.2 ESE 20 32 11 17 1019.0 1018.9 0.0
27/12:00pm 20.4 18.3 16.2 77 2.5 ESE 22 30 12 16 1019.3 1019.2 0.0
27/11:30am 21.7 21.5 15.8 69 3.5 ESE 11 28 6 15 1019.1 1019.0 0.0
27/11:00am 21.4 19.8 15.0 67 3.8 ENE 17 26 9 14 1019.1 1019.0 0.0
27/10:30am 21.1 19.1 15.0 68 3.6 ENE 19 26 10 14 1018.6 1018.5 0.0
27/10:00am 20.6 18.5 15.2 71 3.2 ENE 20 28 11 15 1018.9 1018.8 0.0
27/09:30am 19.9 18.3 15.1 74 2.8 ENE 17 24 9 13 1019.0 1018.9 0.0
27/09:00am 19.5 18.4 15.2 76 2.5 ENE 15 20 8 11 1019.4 1019.3 0.0
27/08:30am 18.8 17.4 15.5 81 1.9 ENE 17 28 9 15 1019.6 1019.5 0.0
27/08:00am 18.3 16.5 15.6 84 1.6 ENE 19 28 10 15 1019.4 1019.3 0.0
27/07:30am 18.1 17.1 15.5 85 1.5 ENE 15 20 8 11 1019.6 1019.5 0.0
27/07:00am 17.7 16.7 15.5 87 1.3 E 15 20 8 11 1019.7 1019.6 0.0
27/06:30am 17.1 17.3 15.8 92 0.8 E 9 13 5 7 1019.9 1019.8 0.0
27/06:00am 17.1 17.0 16.0 93 0.6 E 11 17 6 9 1019.6 1019.5 0.0
27/05:30am 17.0 17.4 16.4 96 0.4 E 9 15 5 8 1019.7 1019.6 0.0
27/05:00am 17.0 17.9 16.7 98 0.2 E 7 9 4 5 1020.1 1020.0 0.0
27/04:30am 17.0 17.3 17.0 100 0.0 ENE 11 15 6 8 1019.5 1019.4 0.0
27/04:00am 17.3 16.9 17.1 99 0.1 ENE 15 19 8 10 1019.2 1019.1 0.0
27/03:30am 17.7 18.1 17.2 97 0.3 NE 11 17 6 9 1019.4 1019.3 0.0
27/03:00am 18.1 18.8 17.0 93 0.7 ENE 9 13 5 7 1019.0 1018.9 0.0
27/02:30am 19.2 18.4 16.1 82 1.9 ENE 15 26 8 14 1018.7 1018.6 0.0
27/02:00am 19.2 18.0 16.2 83 1.8 E 17 28 9 15 1018.2 1018.1 0.0
27/01:30am 19.1 17.9 16.0 82 1.8 E 17 30 9 16 1017.7 1017.6 0.0
27/01:00am 19.1 17.5 16.1 83 1.8 E 19 32 10 17 1017.6 1017.5 0.0
27/12:30am 19.1 17.0 16.1 83 1.8 E 22 35 12 19 1017.8 1017.7 0.0
27/12:00am 19.3 18.2 16.3 83 1.8 ESE 17 28 9 15 1018.6 1018.5 0.0
 
Date/Time
WST
Temp
°C
App
Temp
°C
Dew
Point
°C
Rel
Hum
%
Delta-T
°C
Wind Press
QNH
hPa
Press
MSL
hPa
Rain since
9am
mm
Dir  Spd
km/h
Gust
km/h
Spd
kts
Gust
kts
26/11:30pm 19.1 17.9 16.1 83 1.8 E 17 24 9 13 1019.6 1019.5 0.0
26/11:00pm 19.1 17.9 16.0 82 1.8 E 17 26 9 14 1019.9 1019.8 0.0
26/10:30pm 19.2 17.6 16.1 82 1.9 E 19 30 10 16 1019.9 1019.8 0.0
26/10:00pm 19.3 17.6 16.2 82 1.8 E 20 30 11 16 1020.0 1019.9 0.0
26/09:30pm 19.3 18.5 16.0 81 2.0 ESE 15 22 8 12 1020.4 1020.3 0.0
26/09:00pm 19.3 18.1 16.0 81 2.0 ESE 17 24 9 13 1020.8 1020.7 0.0
26/08:30pm 19.2 18.2 15.5 79 2.2 ESE 15 22 8 12 1020.7 1020.6 0.0
26/08:00pm 19.2 18.6 15.7 80 2.1 ESE 13 20 7 11 1020.7 1020.6 0.0
26/07:30pm 19.2 18.2 15.5 79 2.2 ESE 15 24 8 13 1020.3 1020.2 0.0
26/07:00pm 19.3 18.2 15.2 77 2.4 ESE 15 22 8 12 1020.2 1020.1 0.0
26/06:30pm 19.4 18.3 14.4 73 2.9 SE 13 19 7 10 1019.9 1019.8 0.0
26/06:00pm 19.6 17.7 14.2 71 3.1 ESE 17 24 9 13 1019.5 1019.4 0.0
26/05:30pm 19.9 17.6 14.0 69 3.4 ESE 19 26 10 14 1019.6 1019.5 0.0
26/05:00pm 20.0 17.9 14.6 71 3.1 ESE 19 28 10 15 1019.4 1019.3 0.0
26/04:30pm 20.3 18.3 14.9 71 3.2 ESE 19 26 10 14 1019.4 1019.3 0.0
26/04:00pm 21.1 18.4 14.5 66 3.9 SE 22 32 12 17 1019.5 1019.4 0.0
26/03:30pm 21.4 18.3 14.6 65 4.0 ESE 24 33 13 18 1019.1 1019.0 0.0
26/03:00pm 21.3 17.9 13.7 62 4.4 ESE 24 35 13 19 1018.8 1018.7 0.0
26/02:30pm 21.4 18.0 13.8 62 4.4 SE 24 33 13 18 1019.2 1019.1 0.0
26/02:00pm 21.5 17.8 13.9 62 4.4 SE 26 33 14 18 1019.2 1019.1 0.0
26/01:30pm 22.2 19.4 14.3 61 4.6 SE 22 33 12 18 1019.4 1019.3 0.0
26/01:00pm 22.3 19.3 14.7 62 4.5 ESE 24 35 13 19 1019.4 1019.3 0.0
26/12:30pm 20.8 18.1 14.5 67 3.7 ESE 22 32 12 17 1019.6 1019.5 0.0
26/12:00pm 20.8 18.1 14.5 67 3.7 SE 22 33 12 18 1019.7 1019.6 0.0
26/11:30am 20.8 17.6 14.2 66 3.8 ESE 24 33 13 18 1020.3 1020.2 0.0
26/11:00am 20.1 17.6 14.2 69 3.4 ESE 20 30 11 16 1020.3 1020.2 0.0
26/10:30am 20.1 17.9 14.5 70 3.3 ESE 19 28 10 15 1021.0 1020.9 0.0
26/10:00am 20.2 17.9 14.1 68 3.5 ESE 19 26 10 14 1021.1 1021.0 0.0
26/09:30am 20.2 18.7 14.1 68 3.5 ESE 15 28 8 15 1021.0 1020.9 0.0
26/09:00am 19.8 17.8 14.0 69 3.3 ESE 17 26 9 14 1020.9 1020.8 0.0
26/08:30am 20.0 18.1 14.1 69 3.4 E 17 22 9 12 1021.2 1021.1 0.0
26/08:00am 19.4 17.8 13.8 70 3.2 E 15 24 8 13 1021.4 1021.3 0.0
26/07:30am 18.9 16.8 13.5 71 3.1 E 17 28 9 15 1021.1 1021.0 0.0
26/07:00am 18.9 17.0 13.1 69 3.3 E 15 24 8 13 1020.6 1020.5 0.0
26/06:30am 18.6 16.3 13.0 70 3.2 ESE 17 28 9 15 1020.3 1020.2 0.0
26/06:00am 18.5 17.0 13.1 71 3.0 ESE 13 20 7 11 1020.3 1020.2 0.0
26/05:30am 18.5 16.7 13.4 72 2.9 ESE 15 22 8 12 1019.9 1019.8 0.0
26/05:00am 18.5 16.4 13.6 73 2.8 SE 17 26 9 14 1019.5 1019.4 0.0
26/04:30am 18.4 16.8 13.9 75 2.6 ESE 15 26 8 14 1019.1 1019.0 0.0
26/04:00am 18.4 16.8 13.9 75 2.6 ESE 15 24 8 13 1019.2 1019.1 0.0
26/03:30am 18.5 17.0 14.2 76 2.5 ESE 15 24 8 13 1019.2 1019.1 0.0
26/03:00am 18.5 17.4 14.2 76 2.5 ESE 13 22 7 12 1019.6 1019.5 0.0
26/02:30am 18.5 16.4 14.6 78 2.3 SE 19 28 10 15 1019.2 1019.1 0.0
26/02:00am 18.4 17.0 14.5 78 2.2 SE 15 24 8 13 1019.5 1019.4 0.0
26/01:30am 18.4 17.0 14.5 78 2.3 ESE 15 20 8 11 1019.7 1019.6 0.0
26/01:00am 18.4 17.8 14.7 79 2.1 ESE 11 19 6 10 1020.2 1020.1 0.0
26/12:30am 18.4 17.1 14.9 80 2.0 ESE 15 24 8 13 1020.1 1020.0 0.0
26/12:00am 18.2 17.1 15.3 83 1.7 ESE 15 24 8 13 1020.4 1020.3 0.0

Other formats

Comma delimited format used in spreadsheet applications
http://www.bom.gov.au/fwo/IDW60801/IDW60801.95635.axf

JavaScript Object Notation format (JSON) in row-major order
http://www.bom.gov.au/fwo/IDW60801/IDW60801.95635.json

Data quality

Most of these data are generated automatically and are frequently updated. Quality checks on data are not normally performed. It is possible for incorrect values to appear. Refer to information at About Latest Weather Observations and please check the disclaimer before using these data.